createdAt,value
2023-03-08T07:52:13.442Z,93.30
2023-03-08T07:54:40.745Z,95.00
2023-03-08T07:57:10.440Z,95.60
2023-03-08T07:59:37.566Z,95.40
2023-03-08T08:17:22.700Z,85.50
2023-03-08T08:19:49.898Z,86.00
2023-03-08T08:24:32.963Z,82.20
2023-03-08T08:31:33.089Z,80.80
2023-03-08T08:34:01.005Z,79.10
2023-03-08T08:38:54.362Z,76.00
2023-03-08T08:46:06.165Z,75.30
2023-03-08T08:48:33.962Z,79.40
2023-03-08T09:03:06.642Z,72.90
2023-03-08T09:07:47.301Z,71.90
2023-03-08T09:10:14.411Z,74.10
2023-03-08T09:14:57.023Z,84.70
2023-03-08T09:17:24.243Z,88.00
2023-03-08T09:19:51.663Z,89.00
2023-03-08T09:22:18.916Z,89.40
2023-03-08T09:24:46.063Z,90.10
2023-03-08T09:27:12.996Z,90.50
2023-03-08T09:29:39.931Z,91.80
2023-03-08T09:32:07.351Z,92.90
2023-03-08T09:34:34.600Z,92.90
2023-03-08T09:39:32.569Z,92.90
2023-03-08T09:42:02.158Z,93.50
2023-03-08T09:45:07.541Z,93.50
2023-03-08T09:47:40.074Z,93.40
2023-03-08T09:50:13.135Z,93.50
2023-03-08T09:52:48.781Z,93.80
2023-03-08T09:55:31.608Z,93.60
2023-03-08T09:58:03.016Z,93.70
2023-03-08T10:00:34.719Z,93.50
2023-03-08T10:03:49.327Z,93.30
2023-03-08T10:06:35.806Z,93.50
2023-03-08T10:09:20.886Z,93.90
2023-03-08T10:12:18.083Z,94.70
2023-03-08T10:15:02.820Z,94.40
2023-03-08T10:17:53.578Z,94.40
2023-03-08T10:20:24.543Z,94.10
2023-03-08T10:23:21.176Z,93.80
2023-03-08T10:25:50.226Z,93.90
2023-03-08T10:28:18.990Z,93.90
2023-03-08T10:30:51.911Z,93.70
2023-03-08T10:33:21.095Z,93.30
2023-03-08T10:35:50.689Z,93.70
2023-03-08T10:38:17.924Z,93.20
2023-03-08T10:40:44.948Z,93.00
2023-03-08T10:43:32.646Z,93.40
2023-03-08T10:46:05.560Z,93.80
2023-03-08T10:48:32.961Z,93.40
2023-03-08T10:51:02.791Z,94.00
2023-03-08T10:53:30.714Z,94.20
2023-03-08T10:56:00.781Z,93.70
2023-03-08T10:58:38.178Z,92.10
2023-03-08T11:01:06.736Z,92.10
2023-03-08T11:03:34.695Z,90.00
2023-03-08T11:06:05.112Z,91.20
2023-03-08T11:08:37.964Z,92.20
2023-03-08T11:11:12.155Z,92.30
2023-03-08T11:13:47.650Z,91.80
2023-03-08T11:16:20.572Z,92.40
2023-03-08T11:19:00.784Z,92.30
2023-03-08T11:22:00.172Z,92.00
2023-03-08T11:24:30.194Z,91.10
2023-03-08T11:27:12.292Z,90.50
2023-03-08T11:29:53.028Z,90.20
2023-03-08T11:32:30.439Z,89.00
2023-03-08T11:35:08.454Z,85.70
2023-03-08T11:38:13.814Z,85.50
2023-03-08T11:41:04.578Z,86.20
2023-03-08T11:43:55.738Z,83.20
2023-03-08T11:46:30.331Z,83.40
2023-03-08T11:49:18.889Z,89.20
2023-03-08T11:52:15.022Z,90.30
2023-03-08T11:54:45.115Z,89.50
2023-03-08T11:57:14.699Z,89.10
2023-03-08T11:59:56.985Z,87.20
2023-03-08T12:02:34.644Z,86.00
2023-03-08T12:05:38.487Z,86.70
2023-03-08T12:08:32.834Z,85.20
2023-03-08T12:11:10.258Z,86.70
2023-03-08T12:13:40.782Z,86.60
2023-03-08T12:16:09.247Z,85.50
2023-03-08T12:18:57.504Z,84.80
2023-03-08T12:21:51.927Z,85.80
2023-03-08T12:24:39.122Z,87.80
2023-03-08T12:27:20.879Z,87.80
2023-03-08T12:30:25.330Z,87.50
2023-03-08T12:32:56.416Z,86.20
2023-03-08T12:35:23.602Z,84.60
2023-03-08T12:38:24.899Z,86.00
2023-03-08T12:40:55.511Z,86.50
2023-03-08T12:43:22.502Z,87.10
2023-03-08T12:46:06.354Z,88.20
2023-03-08T12:48:46.648Z,88.70
2023-03-08T12:51:14.202Z,89.00
2023-03-08T12:53:52.845Z,89.60
2023-03-08T12:56:48.568Z,90.00
2023-03-08T12:59:15.627Z,90.20
2023-03-08T13:01:59.085Z,90.70
2023-03-08T13:04:41.505Z,91.90
2023-03-08T13:07:37.551Z,92.50
2023-03-08T13:10:27.515Z,93.50
2023-03-08T13:13:09.760Z,94.20
2023-03-08T13:15:38.575Z,94.40
2023-03-08T13:18:10.952Z,94.40
2023-03-08T13:20:41.989Z,95.50
2023-03-08T13:23:26.126Z,95.90
2023-03-08T13:25:58.746Z,96.40
2023-03-08T13:28:46.149Z,96.20
2023-03-08T13:31:21.222Z,95.90
2023-03-08T13:33:51.645Z,95.90
2023-03-08T13:36:24.336Z,95.50
2023-03-08T13:39:01.552Z,95.60
2023-03-08T13:41:48.033Z,96.20
2023-03-08T13:44:21.881Z,96.60
2023-03-08T13:46:51.347Z,96.60
2023-03-08T13:49:25.754Z,97.00
2023-03-08T13:51:55.821Z,97.20
2023-03-08T13:54:36.135Z,97.30
2023-03-08T13:57:17.820Z,97.90
2023-03-08T13:59:52.766Z,98.00
2023-03-08T14:02:23.375Z,98.40
2023-03-08T14:04:50.660Z,98.00
2023-03-08T14:07:26.804Z,98.20
2023-03-08T14:09:54.267Z,98.30
2023-03-08T14:12:27.106Z,98.60
2023-03-08T14:15:01.048Z,98.50
2023-03-08T14:17:31.275Z,98.50
2023-03-08T14:20:02.109Z,98.50
2023-03-08T14:22:39.200Z,97.90
2023-03-08T14:25:20.127Z,97.80
2023-03-08T14:27:47.371Z,97.90
2023-03-08T14:30:20.185Z,97.80
2023-03-08T14:33:07.098Z,98.30
2023-03-08T14:35:41.350Z,98.50
2023-03-08T14:38:35.246Z,98.50
2023-03-08T14:41:10.199Z,98.60
2023-03-08T14:43:37.718Z,98.90
2023-03-08T14:46:07.171Z,98.90
2023-03-08T14:48:38.607Z,98.90
2023-03-08T14:51:24.182Z,99.00
2023-03-08T14:54:01.403Z,99.00
2023-03-08T14:56:30.326Z,99.00
2023-03-08T14:58:59.556Z,99.10
2023-03-08T15:01:35.258Z,99.70
2023-03-08T15:04:03.305Z,99.80
2023-03-08T15:06:35.519Z,99.90
2023-03-08T15:09:06.310Z,99.90
2023-03-08T15:11:33.502Z,99.90
2023-03-08T15:14:01.258Z,99.90
2023-03-08T15:16:28.544Z,99.90
2023-03-08T15:18:55.604Z,99.90
2023-03-08T15:21:26.058Z,99.90
2023-03-08T15:23:53.692Z,99.90
2023-03-08T15:26:31.664Z,99.90
2023-03-08T15:29:01.340Z,99.90
2023-03-08T15:31:28.450Z,99.90
2023-03-08T15:33:55.526Z,99.90
2023-03-08T15:36:22.800Z,99.90
2023-03-08T15:38:49.898Z,99.90
2023-03-08T15:41:17.754Z,99.90
2023-03-08T15:43:44.945Z,99.90
2023-03-08T15:46:13.718Z,99.90
2023-03-08T15:48:41.152Z,99.90
2023-03-08T15:51:19.425Z,99.90
2023-03-08T15:53:47.248Z,99.90
2023-03-08T15:56:14.452Z,99.90
2023-03-08T15:58:41.733Z,99.90
2023-03-08T16:01:09.007Z,99.90
2023-03-08T16:03:36.162Z,99.90
2023-03-08T16:06:08.656Z,99.90
2023-03-08T16:08:36.604Z,99.90
2023-03-08T16:11:08.279Z,99.90
2023-03-08T16:13:35.475Z,99.90
2023-03-08T16:16:03.905Z,99.90
2023-03-08T16:18:32.018Z,99.90
2023-03-08T16:20:59.645Z,99.90
2023-03-08T16:23:27.546Z,99.90
2023-03-08T16:26:14.672Z,99.90
2023-03-08T16:28:43.743Z,99.90
2023-03-08T16:31:10.892Z,99.90
2023-03-08T16:33:37.946Z,99.90
2023-03-08T16:36:05.132Z,99.90
2023-03-08T16:38:32.390Z,99.90
2023-03-08T16:41:12.156Z,99.90
2023-03-08T16:43:49.236Z,99.90
2023-03-08T16:46:20.962Z,99.90
2023-03-08T16:48:49.693Z,99.90
2023-03-08T16:51:19.142Z,99.90
2023-03-08T16:53:46.267Z,99.90
2023-03-08T16:56:28.209Z,99.90
2023-03-08T16:58:57.809Z,99.90
2023-03-08T17:01:25.890Z,99.90
2023-03-08T17:03:53.594Z,99.90
2023-03-08T17:06:22.635Z,99.90
2023-03-08T17:08:49.638Z,99.90
2023-03-08T17:11:19.241Z,99.90
2023-03-08T17:13:51.151Z,99.90
2023-03-08T17:16:24.037Z,99.90
2023-03-08T17:18:52.232Z,99.90
2023-03-08T17:21:21.043Z,99.90
2023-03-08T17:23:48.997Z,99.90
2023-03-08T17:26:17.271Z,99.90
2023-03-08T17:28:44.647Z,99.90
2023-03-08T17:31:14.136Z,99.90
2023-03-08T17:33:41.890Z,99.90
2023-03-08T17:36:10.544Z,99.90
2023-03-08T17:38:38.127Z,99.90
2023-03-08T17:41:10.778Z,99.90
2023-03-08T17:43:40.972Z,99.90
2023-03-08T17:46:12.943Z,99.90
2023-03-08T17:48:40.266Z,99.90
2023-03-08T17:51:10.820Z,99.90
2023-03-08T17:53:38.105Z,99.90
2023-03-08T17:56:07.350Z,99.90
2023-03-08T17:58:34.443Z,99.90
2023-03-08T18:01:18.794Z,99.90
2023-03-08T18:03:46.293Z,99.90
2023-03-08T18:06:27.144Z,99.90
2023-03-08T18:08:54.276Z,99.90
2023-03-08T18:11:21.524Z,99.90
2023-03-08T18:13:48.979Z,99.90
2023-03-08T18:16:16.127Z,99.90
2023-03-08T18:18:43.194Z,99.90
2023-03-08T18:21:13.863Z,99.90
2023-03-08T18:23:42.766Z,99.90
2023-03-08T18:26:11.801Z,99.90
2023-03-08T18:28:39.372Z,99.90
2023-03-08T18:31:11.061Z,99.90
2023-03-08T18:33:38.594Z,99.90
2023-03-08T18:36:05.979Z,99.90
2023-03-08T18:38:33.266Z,99.90
2023-03-08T18:41:00.443Z,99.90
2023-03-08T18:43:27.481Z,99.90
2023-03-08T18:45:56.107Z,99.90
2023-03-08T18:48:24.426Z,99.90
2023-03-08T18:50:51.424Z,99.90
2023-03-08T18:53:18.646Z,99.90
2023-03-08T18:55:57.170Z,99.90
2023-03-08T18:58:26.024Z,99.90
2023-03-08T19:00:56.217Z,99.90
2023-03-08T19:03:23.283Z,99.90
2023-03-08T19:05:50.325Z,99.90
2023-03-08T19:08:17.329Z,99.90
2023-03-08T19:10:44.440Z,99.90
2023-03-08T19:13:11.353Z,99.90
2023-03-08T19:15:39.394Z,99.90
2023-03-08T19:18:07.212Z,99.90
2023-03-08T19:20:38.861Z,99.90
2023-03-08T19:23:06.898Z,99.90
2023-03-08T19:25:35.731Z,99.90
2023-03-08T19:28:02.912Z,99.90
2023-03-08T19:30:29.933Z,99.90
2023-03-08T19:32:57.024Z,99.90
2023-03-08T19:35:24.017Z,99.90
2023-03-08T19:37:51.019Z,99.90
2023-03-08T19:40:18.237Z,99.90
2023-03-08T19:42:45.228Z,99.90
2023-03-08T19:45:12.840Z,99.90
2023-03-08T19:47:39.877Z,99.90
2023-03-08T19:50:07.494Z,99.90
2023-03-08T19:52:34.492Z,99.90
2023-03-08T19:55:02.237Z,99.90
2023-03-08T19:57:29.270Z,99.90
2023-03-08T19:59:57.812Z,99.90
2023-03-08T20:02:25.063Z,99.90
2023-03-08T20:04:52.390Z,99.90
2023-03-08T20:07:19.444Z,99.90
2023-03-08T20:09:46.538Z,99.90
2023-03-08T20:12:13.526Z,99.90
2023-03-08T20:14:40.497Z,99.90
2023-03-08T20:17:07.479Z,99.90
2023-03-08T20:19:35.739Z,99.90
2023-03-08T20:22:04.621Z,99.90
2023-03-08T20:24:31.842Z,99.90
2023-03-08T20:26:59.293Z,99.90
2023-03-08T20:29:26.377Z,99.90
2023-03-08T20:31:56.035Z,99.90
2023-03-08T20:34:23.422Z,99.90
2023-03-08T20:36:50.756Z,99.90
2023-03-08T20:39:18.285Z,99.90
2023-03-08T20:41:45.453Z,99.90
2023-03-08T20:44:12.564Z,99.90
2023-03-08T20:46:39.628Z,99.90
2023-03-08T20:49:06.632Z,99.90
2023-03-08T20:51:34.448Z,99.90
2023-03-08T20:54:01.733Z,99.90
2023-03-08T20:56:29.552Z,99.90
2023-03-08T20:58:57.776Z,99.90
2023-03-08T21:01:28.927Z,99.90
2023-03-08T21:03:56.082Z,99.90
2023-03-08T21:06:28.621Z,99.90
2023-03-08T21:08:55.929Z,99.90
2023-03-08T21:11:23.076Z,99.90
2023-03-08T21:13:51.735Z,99.90
2023-03-08T21:16:21.119Z,99.90
2023-03-08T21:18:57.024Z,99.90
2023-03-08T21:25:45.172Z,99.90
2023-03-08T21:28:12.306Z,99.90
2023-03-08T21:30:39.497Z,99.90
2023-03-08T21:33:06.694Z,99.90
2023-03-08T21:35:38.957Z,99.90
2023-03-08T21:38:06.529Z,99.90
2023-03-08T21:40:42.100Z,99.90
2023-03-08T21:43:09.524Z,99.90
2023-03-08T21:45:41.472Z,99.90
2023-03-08T21:48:09.341Z,99.90
2023-03-08T21:50:40.191Z,99.90
2023-03-08T21:53:08.128Z,99.90
2023-03-08T21:55:39.560Z,99.90
2023-03-08T21:58:07.570Z,99.90
2023-03-08T22:00:34.701Z,99.90
2023-03-08T22:03:01.961Z,99.90
2023-03-08T22:05:30.210Z,99.90
2023-03-08T22:07:57.434Z,99.90
2023-03-08T22:10:24.601Z,99.90
2023-03-08T22:12:51.796Z,99.90
2023-03-08T22:15:18.946Z,99.90
2023-03-08T22:17:46.209Z,99.90
2023-03-08T22:20:14.131Z,99.90
2023-03-08T22:22:41.597Z,99.90
2023-03-08T22:25:09.021Z,99.90
2023-03-08T22:27:36.401Z,99.90
2023-03-08T22:30:10.755Z,99.90
2023-03-08T22:32:40.386Z,99.90
2023-03-08T22:35:08.937Z,99.90
2023-03-08T22:37:36.141Z,99.90
2023-03-08T22:40:06.445Z,99.90
2023-03-08T23:03:46.322Z,99.90
2023-03-08T23:06:13.673Z,99.90
2023-03-08T23:08:40.875Z,99.90
2023-03-08T23:11:08.151Z,99.90
2023-03-08T23:13:35.267Z,99.90
2023-03-08T23:16:02.893Z,99.90
2023-03-08T23:18:30.057Z,99.90
2023-03-08T23:21:03.917Z,99.90
2023-03-08T23:23:31.223Z,99.90
2023-03-08T23:25:58.659Z,99.90
2023-03-08T23:28:25.999Z,99.90
2023-03-08T23:30:53.375Z,99.90
2023-03-08T23:33:20.490Z,99.90
2023-03-08T23:35:50.563Z,99.90
2023-03-08T23:38:17.684Z,99.90
2023-03-08T23:40:44.863Z,99.90
2023-03-08T23:43:11.911Z,99.50
2023-03-08T23:45:40.328Z,96.80
2023-03-08T23:48:07.671Z,94.70
2023-03-08T23:50:34.740Z,95.20
2023-03-08T23:53:01.825Z,94.50
2023-03-08T23:55:28.946Z,94.20
2023-03-08T23:57:56.397Z,93.90
